Time;durP1;ratioP1;P1;durP2;ratioP2;P2;SDS_P1;SDS_P2;PMS_P1;PMS_P2;Temp;Humidity;BMP_temperature;BMP_pressure;BME280_temperature;BME280_humidity;BME280_pressure;Samples;Min_cycle;Max_cycle;Signal;HPM_P1;HPM_P2
2023/03/08 00:01:34;;;;;;;;;;;;;;;11.36;51.57;98045.44;5031087;28;19979;-91
2023/03/08 00:03:59;;;;;;;;;;;;;;;11.36;51.86;98042.84;5014888;28;19971;-91
2023/03/08 00:06:24;;;;;;;;;;;;;;;11.35;51.74;98041.19;5032419;28;19921;-91
2023/03/08 00:08:53;;;;;;;;;;;;;;;11.35;51.91;98042.97;5013934;28;20001;-90
2023/03/08 00:11:18;;;;;;;;;;;;;;;11.34;51.68;98043.94;5030660;28;19921;-91
2023/03/08 00:13:44;;;;;;;;;;;;;;;11.32;51.89;98043.25;5014109;28;20386;-90
2023/03/08 00:16:09;;;;;;;;;;;;;;;11.30;51.74;98045.19;5014020;28;19978;-92
2023/03/08 00:18:35;;;;;;;;;;;;;;;11.28;52.07;98039.28;5031754;28;19921;-91
2023/03/08 00:21:04;;;;;;;;;;;;;;;11.26;51.80;98042.03;5030315;28;19928;-90
2023/03/08 00:23:30;;;;;;;;;;;;;;;11.24;51.80;98041.31;5011460;28;20462;-90
2023/03/08 00:25:55;;;;;;;;;;;;;;;11.20;51.84;98039.97;5011990;28;20016;-93
2023/03/08 00:28:20;;;;;;;;;;;;;;;11.19;51.87;98043.53;5014463;28;20016;-93
2023/03/08 00:30:53;;;;;;;;;;;;;;;11.18;52.14;98039.25;5015529;28;19917;-91
2023/03/08 00:33:18;;;;;;;;;;;;;;;11.15;52.07;98043.00;5037266;28;20384;-89
2023/03/08 00:35:44;;;;;;;;;;;;;;;11.13;52.01;98037.09;5040018;28;19917;-93
2023/03/08 00:38:09;;;;;;;;;;;;;;;11.11;51.98;98039.00;5034810;28;19921;-92
2023/03/08 00:40:34;;;;;;;;;;;;;;;11.10;52.34;98042.59;5027172;28;20023;-91
2023/03/08 00:42:59;;;;;;;;;;;;;;;11.11;52.29;98038.19;5042996;28;19917;-93
2023/03/08 00:45:25;;;;;;;;;;;;;;;11.10;52.30;98041.75;5032337;28;19921;-92
2023/03/08 00:47:50;;;;;;;;;;;;;;;11.10;52.21;98033.91;5021975;28;19920;-92
2023/03/08 00:50:15;;;;;;;;;;;;;;;11.07;52.37;98027.19;5020276;28;20030;-91
2023/03/08 00:52:41;;;;;;;;;;;;;;;11.05;52.33;98023.88;5053383;28;19924;-92
2023/03/08 00:55:06;;;;;;;;;;;;;;;11.04;52.32;98032.69;5035335;28;20081;-93
2023/03/08 00:57:32;;;;;;;;;;;;;;;10.99;52.24;98025.25;5053329;28;19917;-93
2023/03/08 00:59:57;;;;;;;;;;;;;;;10.97;52.15;98026.34;5017936;28;19924;-89
2023/03/08 01:02:22;;;;;;;;;;;;;;;10.94;52.38;98021.38;5034434;28;19923;-89
2023/03/08 01:04:47;;;;;;;;;;;;;;;10.92;52.44;98016.31;5017978;28;20379;-88
2023/03/08 01:07:13;;;;;;;;;;;;;;;10.90;52.49;98022.66;5034379;28;19917;-88
2023/03/08 01:09:38;;;;;;;;;;;;;;;10.89;52.57;98018.38;5033277;28;19923;-88
2023/03/08 01:12:04;;;;;;;;;;;;;;;10.89;52.53;98029.63;5034410;28;20267;-89
2023/03/08 01:14:29;;;;;;;;;;;;;;;10.86;52.66;98019.47;5018210;28;20406;-89
2023/03/08 01:16:54;;;;;;;;;;;;;;;10.86;52.67;98024.69;5034318;28;19978;-88
2023/03/08 01:19:19;;;;;;;;;;;;;;;10.83;52.61;98024.94;5018953;28;19917;-88
2023/03/08 01:21:45;;;;;;;;;;;;;;;10.81;52.62;98019.88;5021025;28;20010;-90
2023/03/08 01:24:10;;;;;;;;;;;;;;;10.79;52.74;98020.97;5038060;28;19916;-91
2023/03/08 01:26:35;;;;;;;;;;;;;;;10.78;52.84;98014.91;5021988;28;19924;-85
2023/03/08 01:29:01;;;;;;;;;;;;;;;10.76;52.84;98023.88;5055500;28;19924;-90
2023/03/08 01:31:29;;;;;;;;;;;;;;;10.74;52.83;98012.75;5021294;28;20066;-89
2023/03/08 01:33:55;;;;;;;;;;;;;;;10.72;53.09;98017.25;5021327;28;19924;-91
2023/03/08 01:36:21;;;;;;;;;;;;;;;10.71;53.00;98010.41;5021042;28;19917;-90
2023/03/08 01:38:46;;;;;;;;;;;;;;;10.71;52.92;98007.78;5037646;28;19970;-90
2023/03/08 01:41:18;;;;;;;;;;;;;;;10.68;53.11;98014.09;5037654;28;19929;-89
2023/03/08 01:43:44;;;;;;;;;;;;;;;10.65;52.97;98009.97;5021148;28;20011;-90
2023/03/08 01:46:25;;;;;;;;;;;;;;;10.63;53.04;98017.09;5020873;28;20344;-90
2023/03/08 01:48:53;;;;;;;;;;;;;;;10.62;53.03;98012.03;5037318;28;19979;-89
2023/03/08 01:51:24;;;;;;;;;;;;;;;10.59;53.00;98017.50;5037738;28;19924;-90
2023/03/08 01:53:49;;;;;;;;;;;;;;;10.56;53.04;98018.59;5021404;28;20408;-92
2023/03/08 01:56:17;;;;;;;;;;;;;;;10.55;52.95;98016.97;5021146;28;19928;-89
2023/03/08 01:58:42;;;;;;;;;;;;;;;10.54;53.06;98020.53;5021307;28;19917;-90
2023/03/08 02:01:08;;;;;;;;;;;;;;;10.54;52.88;98014.50;5020856;28;19917;-84
2023/03/08 02:03:33;;;;;;;;;;;;;;;10.52;52.96;98013.81;5037306;28;19921;-83
2023/03/08 02:05:58;;;;;;;;;;;;;;;10.50;52.99;98019.16;5028093;28;20451;-87
2023/03/08 02:08:24;;;;;;;;;;;;;;;10.49;53.03;98007.06;5017074;28;19927;-85
2023/03/08 02:10:49;;;;;;;;;;;;;;;10.51;53.24;98005.13;5034966;28;20015;-87
2023/03/08 02:13:14;;;;;;;;;;;;;;;10.52;53.14;98014.63;5017371;28;19928;-87
2023/03/08 02:15:40;;;;;;;;;;;;;;;10.48;53.06;98015.84;5035038;28;19936;-88
2023/03/08 02:18:05;;;;;;;;;;;;;;;10.45;53.01;98014.34;5000214;28;19921;-86
2023/03/08 02:20:31;;;;;;;;;;;;;;;10.42;53.07;98009.38;5000975;28;20043;-88
2023/03/08 02:23:10;;;;;;;;;;;;;;;10.41;53.16;98010.34;5000372;28;19917;-87
2023/03/08 02:25:35;;;;;;;;;;;;;;;10.38;53.22;98015.00;5000680;28;20011;-86
2023/03/08 02:28:01;;;;;;;;;;;;;;;10.36;53.25;98016.91;5017925;28;20012;-88
2023/03/08 02:30:27;;;;;;;;;;;;;;;10.35;53.31;98025.69;5026302;28;19977;-86
2023/03/08 02:32:53;;;;;;;;;;;;;;;10.33;53.20;98018.00;5016965;28;19917;-86
2023/03/08 02:35:18;;;;;;;;;;;;;;;10.30;53.37;98019.06;5000108;28;19983;-86
2023/03/08 02:37:43;;;;;;;;;;;;;;;10.27;53.46;98026.31;5017157;28;20329;-86
2023/03/08 02:40:10;;;;;;;;;;;;;;;10.23;53.27;98030.16;5000446;28;20343;-87
2023/03/08 02:42:35;;;;;;;;;;;;;;;10.22;53.38;98031.94;5017654;28;20363;-87
2023/03/08 02:45:01;;;;;;;;;;;;;;;10.20;53.32;98031.25;5000244;28;19917;-87
2023/03/08 02:47:26;;;;;;;;;;;;;;;10.19;53.42;98034.81;5000306;28;19917;-86
2023/03/08 02:49:51;;;;;;;;;;;;;;;10.18;53.47;98037.56;5000732;28;20315;-88
2023/03/08 02:52:16;;;;;;;;;;;;;;;10.17;53.56;98038.50;5000137;28;19924;-88
2023/03/08 02:54:42;;;;;;;;;;;;;;;10.13;53.45;98036.16;5000289;28;19975;-88
2023/03/08 02:57:07;;;;;;;;;;;;;;;10.14;53.44;98037.00;5000213;28;20013;-87
2023/03/08 02:59:32;;;;;;;;;;;;;;;10.12;53.46;98046.72;5000255;28;19917;-88
2023/03/08 03:01:58;;;;;;;;;;;;;;;10.11;53.46;98042.47;5034022;28;20303;-88
2023/03/08 03:04:23;;;;;;;;;;;;;;;10.09;53.32;98039.19;4999938;28;19935;-87
2023/03/08 03:06:49;;;;;;;;;;;;;;;10.05;53.56;98046.41;5016270;28;20339;-88
2023/03/08 03:09:14;;;;;;;;;;;;;;;10.04;53.62;98052.59;4999736;28;19960;-87
2023/03/08 03:11:39;;;;;;;;;;;;;;;10.04;53.70;98051.75;5016328;28;20011;-88
2023/03/08 03:14:05;;;;;;;;;;;;;;;10.03;53.67;98057.94;4999374;28;19927;-88
2023/03/08 03:16:30;;;;;;;;;;;;;;;10.01;53.66;98054.63;4999606;28;19917;-88
2023/03/08 03:18:55;;;;;;;;;;;;;;;9.99;53.72;98054.75;5015898;28;19928;-87
2023/03/08 03:21:21;;;;;;;;;;;;;;;9.98;53.84;98052.28;5034002;28;19924;-88
2023/03/08 03:23:46;;;;;;;;;;;;;;;9.94;53.80;98054.31;5015902;28;19972;-88
2023/03/08 03:26:16;;;;;;;;;;;;;;;9.93;53.86;98056.13;5015912;28;19917;-87
2023/03/08 03:28:41;;;;;;;;;;;;;;;9.89;53.58;98049.50;5015439;28;19918;-88
2023/03/08 03:31:07;;;;;;;;;;;;;;;9.87;53.91;98051.41;4999540;28;19924;-89
2023/03/08 03:33:32;;;;;;;;;;;;;;;9.86;53.88;98052.38;5016073;28;19924;-89
2023/03/08 03:35:58;;;;;;;;;;;;;;;9.85;53.87;98055.94;4999564;28;19917;-88
2023/03/08 03:38:23;;;;;;;;;;;;;;;9.83;53.98;98057.84;4999359;28;20344;-88
2023/03/08 03:40:48;;;;;;;;;;;;;;;9.82;53.72;98061.41;4999483;28;19929;-88
2023/03/08 03:43:14;;;;;;;;;;;;;;;9.81;54.01;98051.94;5033982;28;19951;-89
2023/03/08 03:45:39;;;;;;;;;;;;;;;9.80;54.05;98049.44;5033632;28;19913;-88
2023/03/08 03:48:04;;;;;;;;;;;;;;;9.80;53.92;98062.50;4998872;28;19918;-88
2023/03/08 03:50:30;;;;;;;;;;;;;;;9.77;53.98;98058.34;4999365;28;19971;-87
2023/03/08 03:52:55;;;;;;;;;;;;;;;9.75;53.95;98052.44;4999244;28;19971;-88
2023/03/08 03:55:20;;;;;;;;;;;;;;;9.74;53.88;98050.78;5015737;28;19917;-87
2023/03/08 03:57:46;;;;;;;;;;;;;;;9.72;54.10;98056.13;4999227;28;19917;-88
2023/03/08 04:00:11;;;;;;;;;;;;;;;9.70;54.17;98065.84;4999199;28;19918;-87
2023/03/08 04:02:36;;;;;;;;;;;;;;;9.71;54.11;98064.06;5015449;28;19917;-88
2023/03/08 04:05:02;;;;;;;;;;;;;;;9.70;53.97;98067.66;5016012;28;19917;-89
2023/03/08 04:07:27;;;;;;;;;;;;;;;9.67;54.03;98060.09;5015400;28;19917;-89
2023/03/08 04:09:52;;;;;;;;;;;;;;;9.66;54.30;98058.41;5015686;28;20039;-89
2023/03/08 04:12:18;;;;;;;;;;;;;;;9.66;54.05;98058.41;4999013;28;19952;-88
2023/03/08 04:14:43;;;;;;;;;;;;;;;9.65;54.21;98068.03;5015440;28;19921;-89
2023/03/08 04:17:08;;;;;;;;;;;;;;;9.66;54.22;98066.25;5015982;28;19925;-89
2023/03/08 04:19:34;;;;;;;;;;;;;;;9.66;54.62;98068.84;5016021;28;19921;-88
2023/03/08 04:21:59;;;;;;;;;;;;;;;9.64;54.32;98068.97;5001549;28;20403;-89
2023/03/08 04:24:24;;;;;;;;;;;;;;;9.64;54.43;98070.75;5001724;28;19917;-88
2023/03/08 04:26:49;;;;;;;;;;;;;;;9.63;54.56;98064.72;5002417;28;19917;-90
2023/03/08 04:29:15;;;;;;;;;;;;;;;9.62;54.67;98070.06;4999666;28;19921;-89
2023/03/08 04:31:40;;;;;;;;;;;;;;;9.58;54.42;98062.50;5014686;28;19917;-86
2023/03/08 04:34:05;;;;;;;;;;;;;;;9.59;54.55;98073.75;5020325;28;20008;-91
2023/03/08 04:36:31;;;;;;;;;;;;;;;9.59;54.92;98071.97;5011559;28;20018;-95
2023/03/08 04:38:56;;;;;;;;;;;;;;;9.63;54.73;98076.91;5019216;28;20011;-92
2023/03/08 04:41:21;;;;;;;;;;;;;;;9.69;56.20;98084.22;5035271;28;20019;-90
2023/03/08 04:43:47;;;;;;;;;;;;;;;9.73;56.16;98085.63;5018027;28;20004;-86
2023/03/08 04:46:13;;;;;;;;;;;;;;;9.83;59.18;98086.50;5019082;28;19917;-86
2023/03/08 04:48:38;;;;;;;;;;;;;;;10.06;57.08;98089.81;5053151;28;20012;-91
2023/03/08 04:51:04;;;;;;;;;;;;;;;10.29;56.05;98085.25;5018490;28;20251;-83
2023/03/08 04:53:29;;;;;;;;;;;;;;;10.58;54.70;98087.16;5052214;28;19996;-83
2023/03/08 04:55:55;;;;;;;;;;;;;;;10.88;53.84;98089.81;5021795;28;19927;-81
2023/03/08 04:58:20;;;;;;;;;;;;;;;11.43;59.36;98092.75;5038641;28;19917;-86
2023/03/08 05:00:46;;;;;;;;;;;;;;;11.95;54.86;98087.19;5038715;28;19923;-87
2023/03/08 05:03:12;;;;;;;;;;;;;;;12.59;54.46;98093.44;5064040;28;19928;-83
2023/03/08 05:05:43;;;;;;;;;;;;;;;13.20;52.67;98099.84;5043574;28;19921;-84
2023/03/08 05:08:11;;;;;;;;;;;;;;;13.83;49.98;98092.81;5037734;28;19917;-82
2023/03/08 05:10:37;;;;;;;;;;;;;;;14.43;47.05;98088.56;5037683;28;20327;-84
2023/03/08 05:13:02;;;;;;;;;;;;;;;14.82;45.37;98093.34;5021534;28;19917;-86
2023/03/08 05:15:27;;;;;;;;;;;;;;;15.45;46.37;98097.22;5020835;28;19916;-85
2023/03/08 05:17:53;;;;;;;;;;;;;;;16.08;44.87;98105.41;5056148;28;19917;-85
2023/03/08 05:20:18;;;;;;;;;;;;;;;16.59;42.73;98099.84;5022811;28;19986;-84
2023/03/08 05:22:43;;;;;;;;;;;;;;;16.96;41.34;98106.28;5028398;28;19917;-84
2023/03/08 05:25:11;;;;;;;;;;;;;;;17.40;40.10;98108.31;5062963;28;19920;-85
2023/03/08 05:27:37;;;;;;;;;;;;;;;17.81;38.93;98105.34;5038173;28;19916;-84
2023/03/08 05:30:03;;;;;;;;;;;;;;;18.31;38.24;98108.38;5037460;28;20383;-85
2023/03/08 05:32:28;;;;;;;;;;;;;;;18.81;37.06;98105.94;5038006;28;19917;-85
2023/03/08 05:34:53;;;;;;;;;;;;;;;19.28;36.25;98104.66;5020588;28;19924;-84
2023/03/08 05:37:19;;;;;;;;;;;;;;;19.57;35.70;98113.47;5038553;28;19921;-85
2023/03/08 05:39:44;;;;;;;;;;;;;;;20.02;34.63;98114.06;5056948;28;19924;-85
2023/03/08 05:42:11;;;;;;;;;;;;;;;20.41;33.96;98115.34;5020646;28;20308;-86
2023/03/08 05:44:37;;;;;;;;;;;;;;;20.76;33.49;98114.50;5055516;28;19917;-83
2023/03/08 05:47:02;;;;;;;;;;;;;;;21.10;32.54;98121.56;5037803;28;19924;-83
2023/03/08 05:49:27;;;;;;;;;;;;;;;21.44;32.10;98118.97;5037661;28;20019;-79
2023/03/08 05:51:53;;;;;;;;;;;;;;;21.76;31.49;98116.59;5020707;28;20445;-82
2023/03/08 05:54:19;;;;;;;;;;;;;;;22.07;30.83;98117.81;5037782;28;19924;-87
2023/03/08 05:56:44;;;;;;;;;;;;;;;22.43;30.40;98128.00;5037556;28;20304;-86
2023/03/08 05:59:09;;;;;;;;;;;;;;;22.74;29.54;98124.63;5020491;28;19917;-86
2023/03/08 06:01:34;;;;;;;;;;;;;;;23.06;29.17;98129.22;5020681;28;20038;-85
2023/03/08 06:04:00;;;;;;;;;;;;;;;23.32;28.42;98128.25;5021100;28;19964;-86
2023/03/08 06:06:25;;;;;;;;;;;;;;;23.58;28.02;98129.94;5055849;28;20439;-88
2023/03/08 06:08:51;;;;;;;;;;;;;;;23.83;27.65;98129.13;5022571;28;19923;-85
2023/03/08 06:11:16;;;;;;;;;;;;;;;24.08;27.11;98137.16;5038899;28;20357;-85
2023/03/08 06:13:41;;;;;;;;;;;;;;;24.34;26.87;98141.41;5056692;28;19917;-87
2023/03/08 06:16:07;;;;;;;;;;;;;;;24.61;26.39;98137.69;5038705;28;19969;-86
2023/03/08 06:18:32;;;;;;;;;;;;;;;24.85;25.72;98143.97;5025123;28;19916;-84
2023/03/08 06:20:58;;;;;;;;;;;;;;;25.05;25.64;98139.22;5041171;28;19924;-87
2023/03/08 06:23:24;;;;;;;;;;;;;;;25.28;25.14;98148.38;5042005;28;19917;-88
2023/03/08 06:25:49;;;;;;;;;;;;;;;25.49;24.91;98152.38;5041566;28;19917;-86
2023/03/08 06:28:15;;;;;;;;;;;;;;;25.70;24.52;98156.41;5057431;28;19920;-88
2023/03/08 06:30:40;;;;;;;;;;;;;;;25.91;24.05;98155.03;5057360;28;19924;-91
2023/03/08 06:33:05;;;;;;;;;;;;;;;26.27;23.55;98155.91;5044019;28;20316;-91
2023/03/08 06:35:30;;;;;;;;;;;;;;;26.52;23.12;98161.03;5056755;28;19917;-85
2023/03/08 06:37:56;;;;;;;;;;;;;;;26.63;22.74;98147.84;5057062;28;20007;-87
2023/03/08 06:40:21;;;;;;;;;;;;;;;26.86;22.45;98150.50;5023315;28;19931;-82
2023/03/08 06:42:46;;;;;;;;;;;;;;;27.05;22.38;98158.38;5039874;28;19942;-89
2023/03/08 06:45:12;;;;;;;;;;;;;;;27.31;21.72;98164.22;5043081;28;19917;-87
2023/03/08 06:47:37;;;;;;;;;;;;;;;27.52;21.68;98168.13;5025875;28;19917;-87
2023/03/08 06:50:02;;;;;;;;;;;;;;;27.88;20.69;98174.06;5055317;28;19917;-83
2023/03/08 06:52:33;;;;;;;;;;;;;;;27.98;21.26;98168.91;5056522;28;19917;-87
2023/03/08 06:54:59;;;;;;;;;;;;;;;28.21;20.51;98180.50;5039793;28;19924;-88
2023/03/08 06:57:24;;;;;;;;;;;;;;;28.38;20.24;98180.50;5021293;28;19917;-86
2023/03/08 06:59:49;;;;;;;;;;;;;;;28.66;20.22;98185.75;5021766;28;19916;-86
2023/03/08 07:02:15;;;;;;;;;;;;;;;28.81;20.02;98185.16;5037436;28;19921;-87
2023/03/08 07:04:40;;;;;;;;;;;;;;;29.08;19.69;98187.06;5037290;28;20019;-88
2023/03/08 07:07:06;;;;;;;;;;;;;;;29.34;19.70;98179.34;5021066;28;20311;-86
2023/03/08 07:09:32;;;;;;;;;;;;;;;29.66;19.28;98182.06;5037479;28;19967;-88
2023/03/08 07:11:57;;;;;;;;;;;;;;;29.97;19.26;98193.13;5038117;28;19917;-87
2023/03/08 07:14:22;;;;;;;;;;;;;;;30.29;18.83;98192.28;5057544;28;20368;-87
2023/03/08 07:16:48;;;;;;;;;;;;;;;30.59;18.62;98194.38;5036702;28;19920;-88
2023/03/08 07:19:13;;;;;;;;;;;;;;;30.89;18.48;98200.19;5055301;28;19959;-86
2023/03/08 07:21:38;;;;;;;;;;;;;;;31.27;18.10;98199.00;5054713;28;19916;-88
2023/03/08 07:24:04;;;;;;;;;;;;;;;31.56;17.86;98201.25;5036774;28;19917;-86
2023/03/08 07:26:29;;;;;;;;;;;;;;;31.76;17.86;98203.16;5055565;28;20438;-86
2023/03/08 07:28:56;;;;;;;;;;;;;;;31.83;17.81;98201.00;5054859;28;19960;-89
2023/03/08 07:31:21;;;;;;;;;;;;;;;31.81;17.93;98207.75;5020726;28;19921;-87
2023/03/08 07:33:47;;;;;;;;;;;;;;;31.52;17.84;98205.53;5019986;28;19924;-86
2023/03/08 07:36:12;;;;;;;;;;;;;;;31.42;17.98;98203.59;5054882;28;19924;-85
2023/03/08 07:38:39;;;;;;;;;;;;;;;31.39;17.94;98206.81;5054974;28;20217;-86
2023/03/08 07:41:05;;;;;;;;;;;;;;;31.23;17.66;98205.97;5038254;28;19982;-86
2023/03/08 07:43:30;;;;;;;;;;;;;;;31.30;17.79;98200.38;5039711;28;19925;-87
2023/03/08 07:45:57;;;;;;;;;;;;;;;30.95;18.13;98209.91;5021201;28;20383;-87
2023/03/08 07:48:23;;;;;;;;;;;;;;;31.03;18.01;98199.44;5055264;28;19917;-86
2023/03/08 07:50:48;;;;;;;;;;;;;;;30.79;18.71;98199.06;5037292;28;20415;-86
2023/03/08 07:53:14;;;;;;;;;;;;;;;30.77;18.43;98200.38;5056362;28;19916;-84
2023/03/08 07:55:39;;;;;;;;;;;;;;;30.60;18.66;98197.88;5036935;28;19924;-85
2023/03/08 07:58:04;;;;;;;;;;;;;;;30.53;18.80;98200.00;5019295;28;20055;-85
2023/03/08 08:00:30;;;;;;;;;;;;;;;30.73;18.81;98197.41;5021300;28;20038;-87
2023/03/08 08:02:56;;;;;;;;;;;;;;;30.76;18.42;98199.59;5020296;28;20382;-86
2023/03/08 08:05:21;;;;;;;;;;;;;;;30.26;19.16;98200.88;5020674;28;20363;-88
2023/03/08 08:07:47;;;;;;;;;;;;;;;30.33;19.08;98200.63;5039912;28;19917;-90
2023/03/08 08:10:12;;;;;;;;;;;;;;;30.51;18.66;98205.63;5025577;28;19923;-87
2023/03/08 08:12:37;;;;;;;;;;;;;;;30.73;19.15;98208.19;5038220;28;20387;-88
2023/03/08 08:15:03;;;;;;;;;;;;;;;30.82;18.95;98203.94;5039134;28;20388;-87
2023/03/08 08:17:28;;;;;;;;;;;;;;;30.74;19.03;98209.81;5021013;28;19917;-89
2023/03/08 08:19:53;;;;;;;;;;;;;;;30.93;18.50;98207.47;5057103;28;19917;-87
2023/03/08 08:22:19;;;;;;;;;;;;;;;31.06;18.79;98205.38;5025763;28;19919;-87
2023/03/08 08:24:44;;;;;;;;;;;;;;;31.20;18.80;98199.25;5037379;28;20300;-87
2023/03/08 08:27:09;;;;;;;;;;;;;;;31.39;18.07;98198.75;5021768;28;20335;-88
2023/03/08 08:29:35;;;;;;;;;;;;;;;31.40;18.04;98197.66;5039682;28;19917;-87
2023/03/08 08:32:01;;;;;;;;;;;;;;;31.39;18.40;98190.66;5060606;28;19917;-88
2023/03/08 08:34:26;;;;;;;;;;;;;;;31.37;18.41;98180.16;5027381;28;19943;-89
2023/03/08 08:36:52;;;;;;;;;;;;;;;31.48;18.33;98183.66;5026713;28;19966;-88
2023/03/08 08:39:17;;;;;;;;;;;;;;;31.70;18.13;98182.66;5044059;28;19921;-88
2023/03/08 08:41:42;;;;;;;;;;;;;;;31.70;18.06;98182.66;5043119;28;19927;-85
2023/03/08 08:44:07;;;;;;;;;;;;;;;31.79;18.03;98181.03;5060308;28;19920;-87
2023/03/08 08:46:33;;;;;;;;;;;;;;;31.71;17.99;98179.69;5023740;28;19917;-86
2023/03/08 08:48:59;;;;;;;;;;;;;;;31.69;18.12;98181.84;5024990;28;19917;-86
2023/03/08 08:51:24;;;;;;;;;;;;;;;31.92;17.71;98180.47;5039711;28;20399;-87
2023/03/08 08:53:50;;;;;;;;;;;;;;;32.10;17.94;98176.47;5057535;28;19947;-86
2023/03/08 08:56:16;;;;;;;;;;;;;;;32.26;17.84;98171.88;5058321;28;19921;-86
2023/03/08 08:58:41;;;;;;;;;;;;;;;32.41;17.63;98178.31;5058872;28;19983;-87
2023/03/08 09:01:17;;;;;;;;;;;;;;;32.48;17.53;98176.13;5042074;28;19935;-87
2023/03/08 09:03:43;;;;;;;;;;;;;;;32.73;17.34;98186.06;5057422;28;19916;-85
2023/03/08 09:06:08;;;;;;;;;;;;;;;32.59;17.07;98180.44;5023747;28;19917;-86
2023/03/08 09:08:34;;;;;;;;;;;;;;;32.71;16.78;98177.44;5039556;28;19971;-84
2023/03/08 09:11:03;;;;;;;;;;;;;;;32.85;16.82;98183.06;5039464;28;19973;-85
2023/03/08 09:13:28;;;;;;;;;;;;;;;33.07;16.45;98179.19;5023377;28;19917;-85
2023/03/08 09:15:54;;;;;;;;;;;;;;;33.09;16.77;98177.03;5058963;28;20307;-87
2023/03/08 09:18:19;;;;;;;;;;;;;;;33.22;16.52;98179.13;5060604;28;19924;-87
2023/03/08 09:20:44;;;;;;;;;;;;;;;33.14;16.48;98176.97;5060790;28;19931;-87
2023/03/08 09:23:10;;;;;;;;;;;;;;;33.28;16.35;98183.41;5025800;28;20005;-86
2023/03/08 09:25:35;;;;;;;;;;;;;;;33.28;16.56;98174.50;5024693;28;19921;-87
2023/03/08 09:28:00;;;;;;;;;;;;;;;33.27;16.04;98176.41;5025612;28;20019;-88
2023/03/08 09:30:26;;;;;;;;;;;;;;;33.09;16.61;98172.41;5024866;28;19921;-85
2023/03/08 09:32:51;;;;;;;;;;;;;;;33.11;16.39;98175.63;5038253;28;19923;-84
2023/03/08 09:35:16;;;;;;;;;;;;;;;32.90;16.73;98172.22;5058691;28;19924;-86
2023/03/08 09:37:41;;;;;;;;;;;;;;;32.87;16.81;98170.09;5058459;28;20379;-87
2023/03/08 09:40:09;;;;;;;;;;;;;;;32.84;16.53;98180.66;5041845;28;19931;-89
2023/03/08 09:42:36;;;;;;;;;;;;;;;32.77;16.75;98176.34;5029333;28;20020;-85
2023/03/08 09:45:16;;;;;;;;;;;;;;;32.67;17.22;98170.16;5033680;28;19916;-89
2023/03/08 09:47:50;;;;;;;;;;;;;;;32.46;17.37;98170.19;5046327;28;19916;-86
2023/03/08 09:50:15;;;;;;;;;;;;;;;32.38;17.28;98174.25;5029293;28;20004;-85
2023/03/08 09:52:45;;;;;;;;;;;;;;;32.33;17.68;98170.78;5058012;28;20376;-87
2023/03/08 09:55:29;;;;;;;;;;;;;;;32.36;17.70;98162.94;5045414;28;19917;-85
2023/03/08 09:57:57;;;;;;;;;;;;;;;32.28;17.75;98158.09;5026776;28;19917;-89
2023/03/08 10:00:26;;;;;;;;;;;;;;;32.16;17.61;98165.66;5024691;28;20003;-87
2023/03/08 10:03:03;;;;;;;;;;;;;;;32.07;17.64;98158.09;5026033;28;19924;-88
2023/03/08 10:05:50;;;;;;;;;;;;;;;31.70;17.90;98155.66;5041418;28;20382;-87
2023/03/08 10:08:25;;;;;;;;;;;;;;;31.64;17.97;98151.34;5024494;28;19917;-86
2023/03/08 10:10:50;;;;;;;;;;;;;;;31.25;17.99;98149.94;5058545;28;19923;-88
2023/03/08 10:13:29;;;;;;;;;;;;;;;31.17;18.18;98151.25;5059522;28;19999;-87
2023/03/08 10:15:57;;;;;;;;;;;;;;;30.81;18.53;98148.41;5026130;28;19948;-86
2023/03/08 10:18:38;;;;;;;;;;;;;;;30.87;18.47;98143.88;5059485;28;20383;-86
2023/03/08 10:21:03;;;;;;;;;;;;;;;30.42;18.43;98142.56;5041942;28;19921;-88
2023/03/08 10:23:30;;;;;;;;;;;;;;;30.02;18.96;98144.72;5025365;28;19923;-88
2023/03/08 10:25:55;;;;;;;;;;;;;;;29.50;19.81;98145.34;5041113;28;19917;-88
2023/03/08 10:28:22;;;;;;;;;;;;;;;29.43;19.71;98150.94;5058555;28;19924;-86
2023/03/08 10:30:50;;;;;;;;;;;;;;;29.46;20.01;98145.06;5041816;28;19974;-85
2023/03/08 10:33:16;;;;;;;;;;;;;;;29.45;19.88;98148.00;5057749;28;19916;-86
2023/03/08 10:35:57;;;;;;;;;;;;;;;29.40;19.87;98136.13;5058799;28;19923;-87
2023/03/08 10:38:22;;;;;;;;;;;;;;;29.31;20.05;98134.94;5059226;28;19916;-86
2023/03/08 10:40:48;;;;;;;;;;;;;;;29.27;20.20;98120.41;5040189;28;19921;-87
2023/03/08 10:43:33;;;;;;;;;;;;;;;29.07;20.07;98120.97;5042035;28;19970;-87
2023/03/08 10:45:59;;;;;;;;;;;;;;;29.02;19.68;98107.50;5025919;28;19913;-86
2023/03/08 10:48:24;;;;;;;;;;;;;;;28.76;20.02;98123.31;5026132;28;19924;-88
2023/03/08 10:50:56;;;;;;;;;;;;;;;28.66;20.16;98110.56;5039702;28;19917;-85
2023/03/08 10:53:23;;;;;;;;;;;;;;;28.23;20.45;98114.81;5021726;28;20303;-87
2023/03/08 10:55:49;;;;;;;;;;;;;;;28.06;20.08;98106.00;5039466;28;19917;-85
2023/03/08 10:58:27;;;;;;;;;;;;;;;27.54;20.89;98099.00;5024861;28;20004;-86
2023/03/08 11:00:53;;;;;;;;;;;;;;;27.40;21.35;98093.91;5037518;28;20316;-86
2023/03/08 11:03:19;;;;;;;;;;;;;;;27.34;21.56;98094.91;5054806;28;20384;-86
2023/03/08 11:06:00;;;;;;;;;;;;;;;27.03;21.34;98085.47;5038983;28;19924;-84
2023/03/08 11:08:27;;;;;;;;;;;;;;;26.60;21.73;98084.06;5038738;28;19920;-85
2023/03/08 11:11:22;;;;;;;;;;;;;;;26.41;21.59;98081.56;5024059;28;19917;-86
2023/03/08 11:13:48;;;;;;;;;;;;;;;26.18;21.52;98071.72;4979582;28;19918;-88
2023/03/08 11:16:13;;;;;;;;;;;;;;;26.02;22.33;98070.56;4962251;28;19918;-88
2023/03/08 11:18:45;;;;;;;;;;;;;;;26.08;22.14;98074.97;4960360;28;19918;-86
2023/03/08 11:21:19;;;;;;;;;;;;;;;26.06;21.94;98058.38;4961876;28;19918;-87
2023/03/08 11:23:47;;;;;;;;;;;;;;;25.98;22.54;98053.34;4960918;28;19934;-87
2023/03/08 11:26:24;;;;;;;;;;;;;;;26.03;22.48;98052.66;4960235;28;19918;-86
2023/03/08 11:28:52;;;;;;;;;;;;;;;26.03;22.22;98052.66;4961203;28;19922;-88
2023/03/08 11:31:21;;;;;;;;;;;;;;;25.95;21.66;98048.44;4977848;28;19918;-87
2023/03/08 11:34:05;;;;;;;;;;;;;;;25.45;21.06;98050.50;4961186;28;19929;-87
2023/03/08 11:36:36;;;;;;;;;;;;;;;25.45;20.76;98047.84;4958772;28;20076;-86
2023/03/08 11:39:20;;;;;;;;;;;;;;;25.59;20.62;98047.63;4974799;28;19988;-86
2023/03/08 11:41:49;;;;;;;;;;;;;;;25.72;20.58;98050.06;4957956;28;20025;-88
2023/03/08 11:44:33;;;;;;;;;;;;;;;25.75;20.16;98054.16;4963526;28;19990;-86
2023/03/08 11:46:58;;;;;;;;;;;;;;;25.82;20.36;98049.50;4976472;28;19919;-88
2023/03/08 11:49:29;;;;;;;;;;;;;;;25.95;19.69;98045.75;4989513;28;19924;-89
2023/03/08 11:52:13;;;;;;;;;;;;;;;26.07;19.67;98038.59;5044063;28;19901;-87
2023/03/08 11:54:44;;;;;;;;;;;;;;;26.13;19.75;98040.31;5036943;28;20372;-86
2023/03/08 11:57:09;;;;;;;;;;;;;;;26.14;19.88;98043.78;5038744;28;19974;-89
2023/03/08 12:00:11;;;;;;;;;;;;;;;26.15;19.45;98040.88;5040588;28;19916;-87
2023/03/08 12:02:37;;;;;;;;;;;;;;;25.66;17.45;98032.28;4979249;28;19918;-91
2023/03/08 12:05:12;;;;;;;;;;;;;;;25.64;18.60;98035.19;4963715;28;19918;-87
2023/03/08 12:07:46;;;;;;;;;;;;;;;25.59;18.91;98031.59;4944128;28;19918;-89
2023/03/08 12:10:11;;;;;;;;;;;;;;;25.42;17.72;98026.13;4960081;28;19922;-86
2023/03/08 12:12:41;;;;;;;;;;;;;;;24.68;18.83;98027.16;4958797;28;19925;-89
2023/03/08 12:15:13;;;;;;;;;;;;;;;24.61;18.70;98023.78;4959523;28;19922;-87
2023/03/08 12:17:43;;;;;;;;;;;;;;;24.03;18.30;98028.50;4958882;28;19925;-87
2023/03/08 12:20:12;;;;;;;;;;;;;;;23.75;18.44;98009.50;4959125;28;19918;-89
2023/03/08 12:22:48;;;;;;;;;;;;;;;23.52;19.30;98018.13;4958976;28;20080;-87
2023/03/08 12:25:39;;;;;;;;;;;;;;;23.32;19.85;98021.75;4959855;28;20009;-88
2023/03/08 12:28:19;;;;;;;;;;;;;;;23.14;19.70;98014.53;4880899;29;19923;-88
2023/03/08 12:31:03;;;;;;;;;;;;;;;23.24;20.00;98012.19;4879266;29;19931;-87
2023/03/08 12:33:31;;;;;;;;;;;;;;;22.96;19.68;98007.22;4878916;29;19920;-86
2023/03/08 12:35:57;;;;;;;;;;;;;;;22.72;20.73;98008.81;4878645;29;20315;-87
2023/03/08 12:38:22;;;;;;;;;;;;;;;22.74;20.21;98006.78;4924387;29;19926;-87
2023/03/08 12:40:48;;;;;;;;;;;;;;;22.51;20.59;98004.63;4937323;29;19922;-87
2023/03/08 12:43:14;;;;;;;;;;;;;;;22.46;20.81;97999.13;4937766;29;19926;-86
2023/03/08 12:45:44;;;;;;;;;;;;;;;22.57;21.01;97996.59;4938626;29;19997;-89
2023/03/08 12:48:17;;;;;;;;;;;;;;;22.66;20.98;97994.53;4939403;29;19922;-88